Time;durP1;ratioP1;P1;durP2;ratioP2;P2;SDS_P1;SDS_P2;PMS_P1;PMS_P2;Temp;Humidity;BMP_temperature;BMP_pressure;BME280_temperature;BME280_humidity;BME280_pressure;Samples;Min_cycle;Max_cycle;Signal;HPM_P1;HPM_P2
2021/07/19 00:00:13;;;;;;;5.20;2.90;;;16.70;99.90;;;15.39;89.25;101860.09;3550076;39;102295;-39
2021/07/19 00:02:41;;;;;;;6.25;2.88;;;16.70;99.90;;;15.36;89.55;101863.25;3550258;39;102720;-39
2021/07/19 00:05:15;;;;;;;4.38;2.65;;;16.70;99.90;;;15.32;89.61;101853.78;3550128;39;104259;-39
2021/07/19 00:07:43;;;;;;;4.80;2.67;;;16.70;99.90;;;15.30;89.51;101858.66;3550947;39;102474;-39
2021/07/19 00:10:14;;;;;;;4.28;2.60;;;16.60;99.90;;;15.26;89.61;101853.81;3550330;39;102322;-39
2021/07/19 00:12:42;;;;;;;5.25;3.08;;;16.60;99.90;;;15.20;89.58;101853.63;3550715;39;102348;-39
2021/07/19 00:15:20;;;;;;;5.63;3.00;;;16.60;99.90;;;15.19;89.45;101862.09;3550112;39;102287;-39
2021/07/19 00:17:48;;;;;;;4.95;2.60;;;16.50;99.90;;;15.14;89.75;101862.75;3550541;39;102333;-39
2021/07/19 00:20:16;;;;;;;5.93;2.85;;;16.50;99.90;;;15.08;89.69;101858.94;3550319;39;102501;-39
2021/07/19 00:22:45;;;;;;;5.25;3.13;;;16.40;99.90;;;15.06;89.63;101849.25;3550587;39;102194;-41
2021/07/19 00:25:18;;;;;;;5.53;2.88;;;16.40;99.90;;;15.07;89.92;101857.25;3549593;39;102204;-39
2021/07/19 00:27:47;;;;;;;4.65;2.95;;;16.40;99.90;;;15.06;89.27;101850.09;3549907;39;102446;-39
2021/07/19 00:30:17;;;;;;;5.38;3.10;;;16.40;99.90;;;15.02;89.57;101851.59;3550456;39;103103;-39
2021/07/19 00:32:45;;;;;;;9.20;3.00;;;16.30;99.90;;;15.05;90.26;101840.16;3550714;39;102417;-39
2021/07/19 00:35:13;;;;;;;5.90;2.88;;;16.30;99.90;;;15.03;90.16;101841.44;3550200;39;102322;-41
2021/07/19 00:37:45;;;;;;;5.30;2.83;;;16.30;99.90;;;14.96;90.41;101841.47;3549918;39;102266;-39
2021/07/19 00:40:21;;;;;;;4.43;2.90;;;16.30;99.90;;;14.92;90.06;101831.97;3550208;39;102386;-39
2021/07/19 00:42:50;;;;;;;4.97;2.85;;;16.20;99.90;;;14.89;90.20;101844.22;3550045;39;103402;-39
2021/07/19 00:45:25;;;;;;;5.68;3.13;;;16.30;99.90;;;14.84;90.21;101838.56;3550336;39;103072;-39
2021/07/19 00:47:56;;;;;;;5.45;3.33;;;16.20;99.90;;;14.84;90.63;101848.69;3550137;39;102530;-39
2021/07/19 00:50:27;;;;;;;6.57;3.00;;;16.20;99.90;;;14.78;90.44;101843.00;3549893;39;103392;-39
2021/07/19 00:52:59;;;;;;;5.75;3.00;;;16.10;99.90;;;14.72;90.19;101841.13;3549962;39;102408;-39
2021/07/19 00:55:41;;;;;;;4.40;2.85;;;16.10;99.90;;;14.67;90.37;101843.66;3557440;39;102283;-39
2021/07/19 00:58:13;;;;;;;5.18;3.15;;;16.00;99.90;;;14.62;90.49;101829.72;3549879;39;102284;-40
2021/07/19 01:00:53;;;;;;;6.13;3.08;;;16.00;99.90;;;14.60;90.46;101831.84;3549792;39;103284;-39
2021/07/19 01:03:24;;;;;;;6.90;3.58;;;16.00;99.90;;;14.56;90.18;101831.41;3549588;39;102476;-39
2021/07/19 01:05:57;;;;;;;4.53;2.78;;;15.90;99.90;;;14.51;90.58;101833.97;3549002;39;106637;-39
2021/07/19 01:08:29;;;;;;;7.10;2.95;;;15.90;99.90;;;14.48;90.49;101828.91;3557353;39;103551;-39
2021/07/19 01:10:59;;;;;;;6.13;3.60;;;15.80;99.90;;;14.45;90.78;101823.81;3548721;39;103300;-39
2021/07/19 01:13:27;;;;;;;5.25;3.17;;;15.80;99.90;;;14.46;91.05;101831.84;3549219;39;102512;-39
2021/07/19 01:15:55;;;;;;;5.20;3.08;;;15.80;99.90;;;14.44;90.75;101831.22;3549919;39;102337;-39
2021/07/19 01:18:23;;;;;;;6.50;2.95;;;15.80;99.90;;;14.39;90.90;101831.84;3549853;39;103257;-41
2021/07/19 01:21:00;;;;;;;4.60;2.90;;;15.80;99.90;;;14.34;90.93;101828.91;3549847;39;103148;-39
2021/07/19 01:23:59;;;;;;;5.00;3.10;;;15.70;99.90;;;14.23;90.73;101822.16;3549705;39;102091;-39
2021/07/19 01:26:42;;;;;;;6.90;3.10;;;15.70;99.90;;;14.25;90.91;101827.47;3549842;39;104126;-39
2021/07/19 01:29:15;;;;;;;4.75;3.08;;;15.60;99.90;;;14.22;90.84;101817.75;3549874;39;102221;-39
2021/07/19 01:31:47;;;;;;;6.68;3.30;;;15.60;99.90;;;14.19;91.01;101815.41;3557101;39;102165;-39
2021/07/19 01:34:22;;;;;;;4.63;3.17;;;15.60;99.90;;;14.15;91.10;101816.91;3550026;39;102750;-39
2021/07/19 01:37:00;;;;;;;6.00;3.22;;;15.50;99.90;;;14.10;91.19;101811.22;3550332;39;103088;-39
2021/07/19 01:39:47;;;;;;;4.55;2.80;;;15.50;99.90;;;14.07;91.28;101806.16;3640743;22;104126;-42
2021/07/19 01:42:16;;;;;;;6.40;3.20;;;15.50;99.90;;;14.05;91.48;101808.25;3540195;39;102332;-41
2021/07/19 01:44:45;;;;;;;5.03;3.08;;;15.40;99.90;;;14.01;91.58;101807.84;3497910;40;102425;-40
2021/07/19 01:47:16;;;;;;;5.15;3.03;;;15.40;99.90;;;13.98;91.93;101815.63;3498866;39;104087;-41
2021/07/19 01:49:50;;;;;;;6.38;3.40;;;15.30;99.90;;;13.93;91.68;101803.41;3498137;40;102395;-41
2021/07/19 01:52:20;;;;;;;4.88;2.67;;;15.30;99.90;;;13.86;91.58;101799.81;3505081;40;103262;-41
2021/07/19 01:54:48;;;;;;;4.40;2.78;;;15.30;99.90;;;13.87;91.57;101798.78;3498237;40;102586;-41
2021/07/19 01:57:16;;;;;;;6.13;3.08;;;15.20;99.90;;;13.81;91.50;101796.88;3505055;40;103214;-40
2021/07/19 01:59:54;;;;;;;6.40;3.00;;;15.20;99.90;;;13.81;91.58;101805.09;3504953;40;102395;-41
2021/07/19 02:02:41;;;;;;;5.57;2.80;;;15.20;99.90;;;13.79;91.83;101812.66;3497853;40;102196;-40
2021/07/19 02:05:15;;;;;;;5.40;2.80;;;15.20;99.90;;;13.76;91.96;101810.34;3504802;40;102452;-40
2021/07/19 02:07:59;;;;;;;6.20;2.97;;;15.10;99.90;;;13.74;91.99;101816.06;3504875;40;103116;-41
2021/07/19 02:10:30;;;;;;;6.78;2.65;;;15.10;99.90;;;13.71;92.00;101819.22;3497062;40;102224;-41
2021/07/19 02:13:11;;;;;;;4.55;2.97;;;15.10;99.90;;;13.67;92.22;101828.94;3498789;39;102145;-40
2021/07/19 02:15:46;;;;;;;8.43;3.20;;;15.00;99.90;;;13.64;91.95;101823.84;3504947;40;102472;-41
2021/07/19 02:18:23;;;;;;;4.22;2.90;;;15.00;99.90;;;13.55;91.92;101823.22;3497670;40;102279;-40
2021/07/19 02:20:55;;;;;;;4.30;2.83;;;15.00;99.90;;;13.57;92.09;101840.31;3497905;40;103387;-40
2021/07/19 02:23:26;;;;;;;4.68;2.97;;;14.90;99.90;;;13.58;92.45;101835.66;3504747;40;105746;-41
2021/07/19 02:26:14;;;;;;;6.45;3.22;;;14.90;99.90;;;13.55;92.17;101836.06;3497565;40;102289;-40
2021/07/19 02:28:45;;;;;;;5.82;2.80;;;14.90;99.90;;;13.53;92.36;101830.81;3504777;40;103303;-44
2021/07/19 02:31:16;;;;;;;5.10;2.90;;;14.90;99.90;;;13.50;92.54;101829.31;3497581;40;102384;-41
2021/07/19 02:33:48;;;;;;;5.30;3.13;;;14.90;99.90;;;13.49;92.49;101826.75;3498222;39;104265;-40
2021/07/19 02:36:23;;;;;;;6.32;3.10;;;14.90;99.90;;;13.46;92.59;101824.44;3498656;39;102355;-41
2021/07/19 02:38:54;;;;;;;6.80;3.10;;;14.80;99.90;;;13.46;93.13;101818.97;3497731;40;102541;-41
2021/07/19 02:41:27;;;;;;;7.63;3.50;;;14.80;99.90;;;13.46;93.38;101819.81;3496632;40;102387;-41
2021/07/19 02:44:06;;;;;;;6.45;3.10;;;14.80;99.90;;;13.43;93.63;101812.00;3504688;40;103172;-42
2021/07/19 02:46:56;;;;;;;6.90;3.58;;;14.80;99.90;;;13.47;93.63;101818.75;3498018;40;103923;-40
2021/07/19 02:49:24;;;;;;;5.38;3.15;;;14.80;99.90;;;13.43;93.51;101811.16;3496575;40;104142;-42
2021/07/19 02:51:56;;;;;;;5.82;3.30;;;14.80;99.90;;;13.41;93.53;101814.09;3496609;40;102337;-40
2021/07/19 02:54:25;;;;;;;6.80;3.45;;;14.80;99.90;;;13.33;93.47;101812.38;3498196;39;104022;-41
2021/07/19 02:56:55;;;;;;;4.80;2.92;;;14.70;99.90;;;13.35;93.32;101809.41;3497726;40;102402;-41
2021/07/19 02:59:23;;;;;;;4.65;3.10;;;14.70;99.90;;;13.34;93.77;101814.06;3497792;40;102297;-41
2021/07/19 03:01:56;;;;;;;6.10;3.40;;;14.70;99.90;;;13.32;93.83;101807.94;3504521;40;102526;-41
2021/07/19 03:04:27;;;;;;;6.50;2.85;;;14.70;99.90;;;13.30;93.45;101812.78;3496322;40;103101;-40
2021/07/19 03:07:00;;;;;;;5.88;3.28;;;14.70;99.90;;;13.29;93.09;101808.38;3497967;40;103416;-41
2021/07/19 03:09:33;;;;;;;5.82;3.28;;;14.70;99.90;;;13.26;93.45;101802.44;3504485;40;103998;-40
2021/07/19 03:12:02;;;;;;;7.18;3.75;;;14.70;99.90;;;13.23;93.57;101809.16;3497435;40;102497;-41
2021/07/19 03:14:34;;;;;;;6.05;3.30;;;14.60;99.90;;;13.22;94.02;101818.44;3497227;40;103178;-41
2021/07/19 03:17:06;;;;;;;6.00;3.20;;;14.60;99.90;;;13.20;93.88;101817.81;3497790;40;102241;-40
2021/07/19 03:19:39;;;;;;;5.72;3.60;;;14.60;99.90;;;13.17;93.85;101824.56;3497461;40;102600;-40
2021/07/19 03:22:10;;;;;;;4.85;3.10;;;14.60;99.90;;;13.14;93.44;101821.38;3504565;40;102401;-43
2021/07/19 03:24:59;;;;;;;6.25;3.50;;;14.50;99.90;;;13.17;94.43;101815.47;3496287;40;104486;-41
2021/07/19 03:27:30;;;;;;;7.88;3.67;;;14.60;99.90;;;13.19;94.23;101816.13;3497388;40;103351;-40
2021/07/19 03:29:59;;;;;;;7.38;4.22;;;14.60;99.90;;;13.23;94.65;101822.88;3497418;40;103405;-41
2021/07/19 03:32:36;;;;;;;5.72;3.65;;;14.60;99.90;;;13.22;94.89;101823.91;3505783;40;102705;-40
2021/07/19 03:35:10;;;;;;;8.52;4.30;;;14.60;99.90;;;13.28;95.49;101819.53;3497355;40;104316;-41
2021/07/19 03:37:40;;;;;;;7.13;4.25;;;14.60;99.90;;;13.28;95.37;101823.13;3498725;40;102709;-40
2021/07/19 03:40:18;;;;;;;7.22;3.97;;;14.70;99.90;;;13.30;95.09;101817.41;3498649;40;102308;-40
2021/07/19 03:42:50;;;;;;;8.15;4.40;;;14.60;99.90;;;13.28;94.67;101819.53;3497755;40;103342;-41
2021/07/19 03:45:18;;;;;;;7.55;4.25;;;14.70;99.90;;;13.28;94.81;101816.78;3498357;40;103110;-40
2021/07/19 03:47:48;;;;;;;8.55;4.35;;;14.60;99.90;;;13.28;95.24;101814.03;3505564;40;102436;-40
2021/07/19 03:50:17;;;;;;;8.18;4.60;;;14.70;99.90;;;13.29;95.38;101821.22;3505146;40;105014;-40
2021/07/19 03:52:47;;;;;;;11.95;4.35;;;14.60;99.90;;;13.27;95.21;101818.69;3498723;40;102189;-40
2021/07/19 03:55:23;;;;;;;6.70;4.03;;;14.60;99.90;;;13.25;94.96;101823.50;3498500;40;102210;-43
2021/07/19 03:57:53;;;;;;;7.80;4.95;;;14.60;99.90;;;13.21;94.41;101819.50;3498448;40;102672;-41
2021/07/19 04:00:24;;;;;;;6.53;4.35;;;14.60;99.90;;;13.18;94.80;101814.44;3498409;40;102112;-40
2021/07/19 04:03:21;;;;;;;7.28;4.63;;;14.60;99.90;;;13.34;95.66;101836.00;3498874;40;103346;-40
2021/07/19 04:05:57;;;;;;;8.43;4.63;;;14.60;99.90;;;13.35;95.53;101836.81;3499026;40;103200;-40
2021/07/19 04:08:32;;;;;;;7.28;4.55;;;14.70;99.90;;;13.36;95.69;101839.38;3498617;40;102376;-40
2021/07/19 04:11:01;;;;;;;8.40;5.25;;;14.70;99.90;;;13.40;96.44;101841.69;3505240;40;104136;-41
2021/07/19 04:13:31;;;;;;;7.68;4.60;;;14.70;99.90;;;13.49;96.58;101841.31;3498501;40;102429;-41
2021/07/19 04:16:01;;;;;;;10.82;5.47;;;14.70;99.90;;;13.61;96.49;101830.59;3498861;40;102151;-40
2021/07/19 04:18:32;;;;;;;8.27;5.30;;;14.90;99.90;;;13.64;96.39;101835.66;3498570;40;102419;-41
2021/07/19 04:21:00;;;;;;;8.55;5.18;;;14.90;99.90;;;13.75;96.44;101833.34;3498387;40;103229;-42
2021/07/19 04:23:34;;;;;;;9.50;6.07;;;15.00;99.90;;;13.83;96.66;101837.78;3498104;40;102432;-42
2021/07/19 04:26:15;;;;;;;8.98;5.25;;;15.10;99.90;;;13.92;96.37;101837.38;3497157;40;102243;-40
2021/07/19 04:28:45;;;;;;;10.38;6.00;;;15.20;99.90;;;14.05;95.86;101841.16;3497332;40;102499;-41
2021/07/19 04:31:17;;;;;;;11.10;5.50;;;15.30;99.90;;;14.14;95.38;101837.19;3505127;40;105453;-40
2021/07/19 04:33:54;;;;;;;9.73;5.78;;;15.40;99.90;;;14.30;95.97;101840.53;3505199;40;103492;-38
2021/07/19 04:36:32;;;;;;;8.68;5.68;;;15.50;99.90;;;14.42;95.56;101841.56;3497317;40;102488;-41
2021/07/19 04:39:01;;;;;;;11.55;5.80;;;15.60;99.90;;;14.60;94.78;101837.34;3505385;40;104351;-41
2021/07/19 04:41:32;;;;;;;9.90;5.32;;;15.70;99.90;;;14.70;94.99;101834.97;3498361;40;102812;-41
2021/07/19 04:44:00;;;;;;;9.82;5.63;;;15.90;99.90;;;14.89;95.03;101838.75;3498112;40;102333;-40
2021/07/19 04:46:28;;;;;;;11.15;6.07;;;16.00;99.90;;;14.94;92.09;101838.91;3498472;40;102285;-42
2021/07/19 04:48:56;;;;;;;11.18;5.50;;;16.10;99.90;;;15.02;90.92;101840.59;3498624;40;102344;-40
2021/07/19 04:51:24;;;;;;;10.73;5.97;;;16.20;99.90;;;15.13;90.47;101846.47;3498403;40;102103;-40
2021/07/19 04:53:55;;;;;;;10.35;5.88;;;16.20;99.90;;;15.24;90.91;101851.28;3498138;40;102290;-40
2021/07/19 04:56:24;;;;;;;8.23;5.40;;;16.30;99.90;;;15.31;90.29;101856.75;3498203;40;104094;-40
2021/07/19 04:58:55;;;;;;;10.60;6.28;;;16.40;99.90;;;15.41;91.42;101859.03;3498480;40;102323;-41
2021/07/19 05:01:27;;;;;;;11.13;6.45;;;16.50;99.90;;;15.55;88.93;101857.88;3498613;39;103127;-41
2021/07/19 05:03:58;;;;;;;10.25;6.10;;;16.60;99.90;;;15.73;88.79;101856.28;3498415;40;102269;-40
2021/07/19 05:06:28;;;;;;;9.57;5.68;;;16.80;99.90;;;15.80;84.56;101860.69;3498561;39;102241;-40
2021/07/19 05:08:58;;;;;;;10.82;5.85;;;16.90;99.90;;;15.90;85.61;101860.19;3498152;40;102370;-40
2021/07/19 05:11:26;;;;;;;10.07;5.90;;;17.00;99.90;;;15.90;83.41;101864.88;3498098;40;104077;-40
2021/07/19 05:13:56;;;;;;;10.50;5.95;;;17.00;99.90;;;15.87;84.39;101868.88;3498479;40;102392;-38
2021/07/19 05:16:28;;;;;;;11.55;6.35;;;17.00;99.90;;;15.80;84.00;101874.44;3498044;40;103203;-41
2021/07/19 05:18:56;;;;;;;10.68;6.30;;;17.00;99.90;;;15.84;85.21;101874.84;3498428;40;102393;-40
2021/07/19 05:21:24;;;;;;;;;;;17.00;99.90;;;15.86;84.75;101867.19;3498525;40;102299;-40
2021/07/19 05:23:52;;;;;;;12.00;6.10;;;17.00;99.90;;;15.85;84.21;101881.19;3499186;39;102880;-40
2021/07/19 05:26:19;;;;;;;10.82;6.10;;;17.00;99.90;;;15.86;85.25;101880.94;3497911;40;102304;-41
2021/07/19 05:28:46;;;;;;;11.25;6.20;;;17.00;99.90;;;15.86;84.88;101878.19;3497935;40;102427;-40
2021/07/19 05:31:14;;;;;;;10.77;5.70;;;17.00;99.90;;;15.88;83.89;101886.25;3498397;40;103006;-40
2021/07/19 05:33:41;;;;;;;9.82;5.82;;;17.00;99.90;;;15.89;84.59;101890.72;3497770;40;102904;-41
2021/07/19 05:36:11;;;;;;;12.93;6.93;;;17.00;99.90;;;16.00;85.93;101884.47;3498548;39;102359;-40
2021/07/19 05:38:41;;;;;;;10.77;6.00;;;17.10;99.90;;;16.03;85.79;101884.03;3498166;40;102258;-40
2021/07/19 05:41:12;;;;;;;11.55;6.20;;;17.10;99.90;;;16.03;85.49;101880.44;3497980;40;103660;-40
2021/07/19 05:43:40;;;;;;;10.20;5.75;;;17.20;99.90;;;16.13;84.80;101883.53;3498008;40;102427;-40
2021/07/19 05:46:09;;;;;;;11.13;5.93;;;17.30;99.90;;;16.16;83.23;101885.84;3497850;40;103249;-40
2021/07/19 05:48:37;;;;;;;12.77;6.30;;;17.30;99.90;;;16.23;83.91;101888.53;3497341;40;102474;-40
2021/07/19 05:51:05;;;;;;;12.60;6.60;;;17.30;99.90;;;16.23;82.14;101883.91;3497811;40;104065;-40
2021/07/19 05:53:33;;;;;;;10.63;5.63;;;17.40;99.90;;;16.33;83.76;101879.78;3497782;40;102348;-41
2021/07/19 05:56:00;;;;;;;11.38;6.63;;;17.40;99.90;;;16.38;82.89;101880.78;3497808;40;102343;-42
2021/07/19 05:58:28;;;;;;;10.80;6.20;;;17.50;99.90;;;16.46;82.81;101884.31;3497973;40;102443;-43
2021/07/19 06:00:56;;;;;;;13.38;6.53;;;17.50;99.90;;;16.59;83.04;101886.09;3498067;40;102309;-40
2021/07/19 06:03:23;;;;;;;12.98;6.78;;;17.70;99.90;;;16.66;82.37;101886.88;3498346;40;102293;-40
2021/07/19 06:05:51;;;;;;;11.68;6.18;;;17.70;99.90;;;16.75;83.74;101896.53;3498276;40;102710;-41
2021/07/19 06:08:18;;;;;;;12.82;7.50;;;17.80;99.90;;;16.82;82.69;101894.56;3498158;40;102106;-40
2021/07/19 06:10:46;;;;;;;12.25;6.25;;;17.80;99.90;;;16.88;81.04;101898.31;3498177;40;102360;-41
2021/07/19 06:13:13;;;;;;;11.23;6.70;;;17.90;99.90;;;16.95;82.11;101889.94;3498883;39;102386;-41
2021/07/19 06:15:41;;;;;;;10.63;6.35;;;18.00;99.90;;;16.99;79.40;101885.72;3497983;40;102163;-40
2021/07/19 06:18:09;;;;;;;11.35;6.95;;;18.00;99.90;;;17.01;79.30;101886.31;3498671;39;102371;-41
2021/07/19 06:20:36;;;;;;;10.18;6.35;;;18.10;99.90;;;17.11;79.87;101889.38;3497808;40;103276;-41
2021/07/19 06:23:04;;;;;;;13.10;6.75;;;18.10;99.90;;;17.15;79.22;101892.53;3497811;40;102412;-41
2021/07/19 06:25:35;;;;;;;11.45;6.78;;;18.20;99.90;;;17.17;78.48;101895.03;3497962;40;102725;-41
2021/07/19 06:28:05;;;;;;;11.20;6.50;;;18.30;99.90;;;17.15;77.77;101894.44;3497309;40;102395;-41
2021/07/19 06:30:33;;;;;;;10.57;6.60;;;18.30;99.90;;;17.19;78.79;101895.63;3497865;40;102194;-41
2021/07/19 06:33:01;;;;;;;12.15;6.43;;;18.30;99.90;;;17.27;78.29;101897.25;3498591;39;102359;-41
2021/07/19 06:35:29;;;;;;;12.25;6.95;;;18.40;99.90;;;17.29;77.43;101897.84;3497902;40;103143;-41
2021/07/19 06:37:57;;;;;;;;;;;18.30;99.90;;;17.32;77.60;101895.50;3498306;40;102161;-41
2021/07/19 06:40:24;;;;;;;11.98;6.13;;;18.40;99.90;;;17.45;78.37;101908.25;3498079;40;104417;-42
2021/07/19 06:42:52;;;;;;;12.88;6.15;;;18.40;99.90;;;17.61;78.84;101901.25;3497834;40;102490;-41
2021/07/19 06:45:19;;;;;;;12.43;6.57;;;18.50;99.90;;;17.54;74.52;101904.09;3497781;40;102291;-40
2021/07/19 06:47:47;;;;;;;12.82;7.03;;;18.60;99.90;;;17.63;75.46;101898.25;3497736;40;102228;-41
2021/07/19 06:50:14;;;;;;;12.38;6.78;;;18.60;99.90;;;17.72;75.19;101905.13;3497840;40;103324;-41
2021/07/19 06:52:42;;;;;;;11.82;6.78;;;18.70;99.90;;;17.79;73.67;101907.81;3497949;40;102366;-41
2021/07/19 06:55:11;;;;;;;11.25;6.43;;;18.80;99.90;;;17.91;76.35;101903.16;3497745;40;102284;-41
2021/07/19 06:57:39;;;;;;;13.63;6.80;;;18.90;99.90;;;18.00;75.28;101909.19;3497673;40;103245;-41
2021/07/19 07:00:10;;;;;;;11.52;6.90;;;18.90;99.90;;;17.95;71.54;101915.41;3496905;40;102324;-41
2021/07/19 07:02:38;;;;;;;13.88;6.75;;;19.00;99.90;;;18.08;71.70;101902.50;3497314;40;102391;-42
2021/07/19 07:05:06;;;;;;;;;;;19.10;99.90;;;18.17;71.18;101900.22;3499078;40;103209;-41
2021/07/19 07:07:34;;;;;;;12.38;6.63;;;19.20;99.90;;;18.22;70.76;101905.91;3497659;40;102309;-43
2021/07/19 07:10:03;;;;;;;12.50;6.97;;;19.20;99.90;;;18.32;71.48;101902.56;3497441;40;102612;-40
2021/07/19 07:12:31;;;;;;;11.27;5.93;;;19.30;99.90;;;18.36;71.69;101904.56;3498414;39;102189;-41
2021/07/19 07:14:58;;;;;;;11.00;6.20;;;19.30;99.90;;;18.38;69.88;101896.88;3497340;40;103324;-42
2021/07/19 07:17:25;;;;;;;10.52;6.30;;;19.40;99.90;;;18.40;70.97;101899.44;3498257;39;102309;-41
2021/07/19 07:19:54;;;;;;;11.63;6.60;;;19.40;99.90;;;18.48;69.90;101890.78;3498273;39;102155;-40
2021/07/19 07:22:22;;;;;;;11.95;6.53;;;19.40;99.90;;;18.52;70.30;101891.13;3497459;40;102426;-40
2021/07/19 07:24:49;;;;;;;12.68;6.18;;;19.50;99.90;;;18.60;70.04;101889.94;3497378;40;103304;-41
2021/07/19 07:27:19;;;;;;;11.02;6.65;;;19.50;99.90;;;18.73;70.39;101897.16;3497495;40;102518;-41
2021/07/19 07:29:47;;;;;;;11.32;6.63;;;19.60;99.90;;;18.73;67.24;101897.16;3497139;40;103299;-41
2021/07/19 07:32:14;;;;;;;12.73;6.60;;;19.70;99.90;;;18.78;67.88;101898.09;3497364;40;103369;-41
2021/07/19 07:34:42;;;;;;;10.68;6.20;;;19.70;99.90;;;18.89;71.19;101901.09;3497392;40;102353;-40
2021/07/19 07:37:12;;;;;;;10.80;6.13;;;19.80;99.90;;;19.00;68.84;101899.44;3497546;40;102180;-41
2021/07/19 07:39:43;;;;;;;11.48;6.32;;;19.90;99.90;;;19.06;66.64;101910.34;3627836;22;104148;-39
2021/07/19 07:42:12;;;;;;;15.00;6.75;;;20.00;99.90;;;19.05;70.88;101905.88;3497242;40;102689;-39
2021/07/19 07:44:40;;;;;;;11.70;6.68;;;20.00;99.90;;;19.07;67.05;101902.91;3497681;39;102352;-39
2021/07/19 07:47:09;;;;;;;;;;;20.00;99.90;;;19.13;68.52;101907.44;3498214;39;102435;-39
2021/07/19 07:49:39;;;;;;;10.93;6.15;;;20.10;99.90;;;19.19;67.42;101905.63;3497470;40;103006;-39
2021/07/19 07:52:09;;;;;;;11.07;6.50;;;20.10;99.90;;;19.16;67.45;101919.97;3497095;40;102442;-39
2021/07/19 07:54:37;;;;;;;11.45;6.97;;;20.10;99.90;;;19.14;67.16;101916.59;3497155;40;102806;-39
2021/07/19 07:57:05;;;;;;;13.15;6.95;;;20.10;99.90;;;19.03;65.51;101908.06;3497311;40;102050;-39
2021/07/19 07:59:33;;;;;;;11.43;6.75;;;20.10;99.90;;;19.01;67.92;101906.63;3497291;40;102329;-39
2021/07/19 08:02:00;;;;;;;12.02;6.70;;;20.00;99.90;;;19.03;67.46;101896.16;3497321;40;102487;-40
2021/07/19 08:04:29;;;;;;;12.55;6.80;;;20.10;99.90;;;19.08;66.51;101899.88;3497472;40;102589;-39
2021/07/19 08:06:59;;;;;;;11.05;6.75;;;20.10;99.90;;;19.16;67.45;101889.53;3497526;40;102148;-39
2021/07/19 08:09:27;;;;;;;11.25;6.53;;;20.10;99.90;;;19.31;67.18;101892.59;3496882;40;102311;-39
2021/07/19 08:11:56;;;;;;;11.18;6.65;;;20.20;99.90;;;19.35;64.36;101901.25;3498330;40;102571;-39
2021/07/19 08:14:24;;;;;;;13.93;7.00;;;20.30;99.90;;;19.32;65.66;101904.50;3497947;40;102664;-39
2021/07/19 08:16:52;;;;;;;12.70;6.57;;;20.30;99.90;;;19.42;69.21;101899.16;3498796;40;102531;-39
2021/07/19 08:19:22;;;;;;;11.60;6.80;;;20.30;99.90;;;19.44;66.57;101907.25;3498450;40;102182;-39
2021/07/19 08:21:52;;;;;;;14.02;7.43;;;20.30;99.90;;;19.32;64.49;101898.97;3498394;40;102499;-39
2021/07/19 08:24:20;;;;;;;11.93;7.30;;;20.30;99.90;;;19.20;64.86;101901.78;3498565;40;103305;-39
2021/07/19 08:26:47;;;;;;;11.48;7.28;;;20.30;99.90;;;19.11;66.36;101904.94;3498275;40;102362;-39
2021/07/19 08:29:15;;;;;;;13.80;7.03;;;20.10;99.90;;;19.04;65.72;101900.63;3498201;40;102310;-39
2021/07/19 08:31:45;;;;;;;15.60;7.63;;;20.10;99.90;;;19.01;66.58;101901.09;3498745;40;102229;-40
2021/07/19 08:34:13;;;;;;;11.23;7.20;;;20.00;99.90;;;19.05;67.42;101899.53;3498503;40;102272;-39
2021/07/19 08:36:40;;;;;;;12.15;7.40;;;20.10;99.90;;;19.04;66.82;101898.69;3498840;40;102532;-39
2021/07/19 08:39:08;;;;;;;15.98;7.75;;;20.10;99.90;;;19.03;68.45;101913.59;3501620;40;104276;-39
2021/07/19 08:41:36;;;;;;;;;;;20.00;99.90;;;19.11;68.85;101910.47;3508721;39;102150;-40
2021/07/19 08:44:07;;;;;;;12.55;7.97;;;20.10;99.90;;;19.04;67.70;101906.97;3508146;39;104086;-39
2021/07/19 08:46:35;;;;;;;13.50;8.38;;;20.00;99.90;;;19.17;68.31;101896.75;3499519;39;104830;-39
2021/07/19 08:49:07;;;;;;;14.20;8.88;;;20.10;99.90;;;19.16;68.17;101895.06;3507779;40;103649;-39
2021/07/19 08:51:44;;;;;;;14.15;8.15;;;20.20;99.90;;;19.05;68.05;101903.13;3507859;39;102512;-40
2021/07/19 08:54:12;;;;;;;13.25;8.32;;;20.10;99.90;;;19.04;68.42;101900.63;3508620;39;102793;-39
2021/07/19 08:56:41;;;;;;;13.43;8.32;;;20.10;99.90;;;18.96;67.24;101912.84;3508895;39;102300;-39
2021/07/19 08:59:16;;;;;;;16.15;8.50;;;20.00;99.90;;;18.80;67.58;101915.25;3508321;39;103184;-39
2021/07/19 09:01:47;;;;;;;14.15;7.50;;;19.90;99.90;;;18.76;68.28;101908.53;3508235;39;103511;-39
2021/07/19 09:04:19;;;;;;;12.88;7.55;;;19.90;99.90;;;18.66;70.07;101902.78;3508073;40;104189;-38
2021/07/19 09:06:47;;;;;;;12.45;7.38;;;19.80;99.90;;;18.65;67.41;101901.13;3508096;39;102590;-39
2021/07/19 09:09:30;;;;;;;11.70;6.88;;;19.80;99.90;;;18.65;66.42;101906.63;3507700;40;102276;-39
2021/07/19 09:11:59;;;;;;;13.48;7.85;;;19.70;99.90;;;18.69;68.39;101899.53;3507846;39;102578;-39
2021/07/19 09:14:28;;;;;;;11.45;6.93;;;19.70;99.90;;;18.80;66.88;101900.63;3507671;40;102272;-39
2021/07/19 09:16:56;;;;;;;13.50;7.55;;;19.80;99.90;;;18.82;65.18;101901.22;3507893;40;102413;-39
2021/07/19 09:19:28;;;;;;;11.00;7.05;;;19.80;99.90;;;18.94;64.46;101901.19;3507916;40;102300;-39
2021/07/19 09:22:02;;;;;;;10.90;6.90;;;19.90;99.90;;;18.90;64.17;101897.25;3508490;39;102743;-39
2021/07/19 09:24:32;;;;;;;15.10;7.82;;;19.90;99.90;;;18.90;64.18;101898.06;3507612;40;102122;-39
2021/07/19 09:27:00;;;;;;;13.90;7.45;;;20.00;99.90;;;18.96;63.54;101901.78;3508146;39;102654;-39
2021/07/19 09:29:28;;;;;;;;;;;20.00;99.90;;;19.06;63.40;101899.28;3509085;39;103038;-39
2021/07/19 09:31:59;;;;;;;11.73;7.00;;;20.00;99.90;;;19.22;63.01;101894.06;3508903;39;102333;-39
2021/07/19 09:34:32;;;;;;;11.77;7.22;;;20.10;99.90;;;19.46;66.46;101894.81;3508202;40;103445;-39
2021/07/19 09:37:06;;;;;;;12.60;7.65;;;20.30;99.90;;;19.57;62.09;101892.28;3508277;39;103515;-39
2021/07/19 09:39:52;;;;;;;15.88;8.27;;;20.40;99.90;;;19.61;61.54;101894.28;3508676;39;103235;-39
2021/07/19 09:42:24;;;;;;;15.25;8.80;;;20.60;99.90;;;19.63;60.46;101896.81;3508199;40;102282;-39
2021/07/19 09:44:59;;;;;;;14.25;8.55;;;20.60;99.90;;;19.63;59.64;101892.13;3507832;40;102265;-39
2021/07/19 09:47:42;;;;;;;14.60;9.10;;;20.60;99.90;;;19.73;62.11;101896.16;3508200;39;102773;-39
2021/07/19 09:50:16;;;;;;;15.40;9.43;;;20.70;99.90;;;19.87;61.94;101886.44;3507627;40;102473;-39
2021/07/19 09:52:45;;;;;;;15.85;9.85;;;20.80;99.90;;;19.90;60.67;101894.28;3507606;39;102401;-39
2021/07/19 09:55:27;;;;;;;14.40;9.25;;;20.90;99.90;;;19.91;60.01;101895.97;3507647;40;102208;-39
2021/07/19 09:58:01;;;;;;;15.70;9.15;;;20.90;99.90;;;19.90;58.71;101891.50;3508276;40;103395;-40
2021/07/19 10:00:32;;;;;;;13.23;8.07;;;20.90;99.90;;;19.90;58.39;101894.28;3507491;40;103309;-39
2021/07/19 10:03:14;;;;;;;13.85;8.60;;;20.90;99.90;;;19.76;58.72;101902.06;3507728;39;102714;-39
2021/07/19 10:05:42;;;;;;;12.85;8.13;;;20.90;99.90;;;19.81;58.68;101895.75;3507717;40;102214;-39
2021/07/19 10:08:22;;;;;;;11.57;7.00;;;20.80;99.90;;;19.77;61.54;101900.13;3508139;39;102416;-39
2021/07/19 10:10:50;;;;;;;10.83;7.37;;;20.80;99.90;;;19.78;59.47;101888.81;3508096;40;103311;-41
2021/07/19 10:13:18;;;;;;;13.43;7.30;;;20.80;99.90;;;19.85;60.96;101880.31;3507675;39;102153;-39
2021/07/19 10:15:47;;;;;;;;;;;20.80;99.90;;;19.95;58.62;101886.09;3508416;40;104281;-39
2021/07/19 10:18:17;;;;;;;9.45;6.05;;;20.90;99.90;;;20.20;61.11;101886.75;3508415;40;102849;-39
2021/07/19 10:20:44;;;;;;;11.82;7.00;;;21.00;99.90;;;20.48;59.00;101884.97;3507512;40;102324;-39